sensor_id;sensor_type;location;lat;lon;timestamp;pressure;altitude;pressure_sealevel;temperature;humidity
27358;BME280;14831;50.474;7.616;2023-02-18T00:00:35;98870;;;8.6;88.0
27358;BME280;14831;50.474;7.616;2023-02-18T00:05:35;98850;;;8.5;88.4
27358;BME280;14831;50.474;7.616;2023-02-18T00:10:35;98870;;;8.4;89.0
27358;BME280;14831;50.474;7.616;2023-02-18T00:15:35;98860;;;8.5;88.9
27358;BME280;14831;50.474;7.616;2023-02-18T00:20:37;98850;;;8.5;88.8
27358;BME280;14831;50.474;7.616;2023-02-18T00:25:35;98870;;;8.6;87.6
27358;BME280;14831;50.474;7.616;2023-02-18T00:30:38;98870;;;8.9;86.5
27358;BME280;14831;50.474;7.616;2023-02-18T00:35:35;98880;;;9.2;84.5
27358;BME280;14831;50.474;7.616;2023-02-18T00:40:36;98870;;;9.3;84.1
27358;BME280;14831;50.474;7.616;2023-02-18T00:45:35;98880;;;9.3;84.0
27358;BME280;14831;50.474;7.616;2023-02-18T00:50:35;98880;;;9.3;84.3
27358;BME280;14831;50.474;7.616;2023-02-18T00:55:37;98870;;;9.2;84.7
27358;BME280;14831;50.474;7.616;2023-02-18T01:00:35;98860;;;9.2;85.2
27358;BME280;14831;50.474;7.616;2023-02-18T01:05:35;98860;;;9.2;86.0
27358;BME280;14831;50.474;7.616;2023-02-18T01:10:36;98870;;;9.2;86.7
27358;BME280;14831;50.474;7.616;2023-02-18T01:15:35;98850;;;9.1;87.3
27358;BME280;14831;50.474;7.616;2023-02-18T01:20:35;98830;;;9.1;87.8
27358;BME280;14831;50.474;7.616;2023-02-18T01:25:35;98830;;;9.1;87.9
27358;BME280;14831;50.474;7.616;2023-02-18T01:30:35;98840;;;9.2;87.9
27358;BME280;14831;50.474;7.616;2023-02-18T01:35:36;98830;;;9.1;88.1
27358;BME280;14831;50.474;7.616;2023-02-18T01:40:35;98820;;;9.1;88.2
27358;BME280;14831;50.474;7.616;2023-02-18T01:45:41;98820;;;9.2;87.9
27358;BME280;14831;50.474;7.616;2023-02-18T01:50:37;98810;;;9.2;88.1
27358;BME280;14831;50.474;7.616;2023-02-18T01:55:35;98810;;;9.2;88.3
27358;BME280;14831;50.474;7.616;2023-02-18T02:00:35;98790;;;9.1;88.7
27358;BME280;14831;50.474;7.616;2023-02-18T02:05:35;98800;;;9.1;89.3
27358;BME280;14831;50.474;7.616;2023-02-18T02:10:38;98790;;;9.1;89.3
27358;BME280;14831;50.474;7.616;2023-02-18T02:15:37;98780;;;9.1;89.7
27358;BME280;14831;50.474;7.616;2023-02-18T02:20:42;98780;;;9.1;90.6
27358;BME280;14831;50.474;7.616;2023-02-18T02:25:41;98780;;;9.0;90.9
27358;BME280;14831;50.474;7.616;2023-02-18T02:30:41;98770;;;9.1;90.9
27358;BME280;14831;50.474;7.616;2023-02-18T02:35:35;98780;;;9.0;91.2
27358;BME280;14831;50.474;7.616;2023-02-18T02:40:36;98770;;;9.0;91.3
27358;BME280;14831;50.474;7.616;2023-02-18T02:45:37;98750;;;9.1;91.0
27358;BME280;14831;50.474;7.616;2023-02-18T02:50:36;98760;;;9.1;90.9
27358;BME280;14831;50.474;7.616;2023-02-18T02:55:35;98750;;;9.1;91.0
27358;BME280;14831;50.474;7.616;2023-02-18T03:00:37;98740;;;9.1;90.5
27358;BME280;14831;50.474;7.616;2023-02-18T03:05:38;98720;;;9.1;89.6
27358;BME280;14831;50.474;7.616;2023-02-18T03:10:42;98740;;;9.2;89.8
27358;BME280;14831;50.474;7.616;2023-02-18T03:15:36;98720;;;9.1;89.9
27358;BME280;14831;50.474;7.616;2023-02-18T03:20:35;98710;;;9.1;89.7
27358;BME280;14831;50.474;7.616;2023-02-18T03:25:35;98700;;;9.1;89.2
27358;BME280;14831;50.474;7.616;2023-02-18T03:30:35;98700;;;9.2;88.4
27358;BME280;14831;50.474;7.616;2023-02-18T03:35:35;98700;;;9.2;88.4
27358;BME280;14831;50.474;7.616;2023-02-18T03:40:35;98690;;;9.2;88.4
27358;BME280;14831;50.474;7.616;2023-02-18T03:45:35;98690;;;9.2;88.6
27358;BME280;14831;50.474;7.616;2023-02-18T03:50:35;98690;;;9.1;88.8
27358;BME280;14831;50.474;7.616;2023-02-18T03:55:35;98690;;;9.2;88.3
27358;BME280;14831;50.474;7.616;2023-02-18T04:00:35;98680;;;9.2;87.6
27358;BME280;14831;50.474;7.616;2023-02-18T04:05:35;98670;;;9.2;87.3
27358;BME280;14831;50.474;7.616;2023-02-18T04:10:35;98670;;;9.2;87.8
27358;BME280;14831;50.474;7.616;2023-02-18T04:15:35;98670;;;9.2;88.7
27358;BME280;14831;50.474;7.616;2023-02-18T04:20:35;98670;;;9.1;89.0
27358;BME280;14831;50.474;7.616;2023-02-18T04:25:35;98660;;;9.1;89.1
27358;BME280;14831;50.474;7.616;2023-02-18T04:30:35;98650;;;9.1;89.0
27358;BME280;14831;50.474;7.616;2023-02-18T04:35:35;98660;;;9.1;89.0
27358;BME280;14831;50.474;7.616;2023-02-18T04:40:35;98660;;;9.1;89.0
27358;BME280;14831;50.474;7.616;2023-02-18T04:45:35;98650;;;9.1;89.2
27358;BME280;14831;50.474;7.616;2023-02-18T04:50:35;98660;;;9.1;89.3
27358;BME280;14831;50.474;7.616;2023-02-18T04:55:35;98640;;;9.0;89.5
27358;BME280;14831;50.474;7.616;2023-02-18T05:00:35;98630;;;9.0;89.4
27358;BME280;14831;50.474;7.616;2023-02-18T05:05:35;98630;;;9.0;89.5
27358;BME280;14831;50.474;7.616;2023-02-18T05:10:36;98620;;;9.0;89.5
27358;BME280;14831;50.474;7.616;2023-02-18T05:15:35;98640;;;9.0;89.7
27358;BME280;14831;50.474;7.616;2023-02-18T05:20:35;98630;;;9.0;89.8
27358;BME280;14831;50.474;7.616;2023-02-18T05:25:35;98630;;;9.0;90.1
27358;BME280;14831;50.474;7.616;2023-02-18T05:30:35;98610;;;8.9;90.3
27358;BME280;14831;50.474;7.616;2023-02-18T05:35:35;98590;;;8.9;90.4
27358;BME280;14831;50.474;7.616;2023-02-18T05:40:35;98600;;;8.9;90.6
27358;BME280;14831;50.474;7.616;2023-02-18T05:45:35;98600;;;8.9;90.6
27358;BME280;14831;50.474;7.616;2023-02-18T05:50:35;98590;;;8.9;90.7
27358;BME280;14831;50.474;7.616;2023-02-18T05:55:35;98590;;;8.8;90.8
27358;BME280;14831;50.474;7.616;2023-02-18T06:00:35;98580;;;8.8;91.1
27358;BME280;14831;50.474;7.616;2023-02-18T06:05:35;98590;;;8.8;91.3
27358;BME280;14831;50.474;7.616;2023-02-18T06:10:35;98590;;;8.8;91.4
27358;BME280;14831;50.474;7.616;2023-02-18T06:15:35;98580;;;8.8;91.3
27358;BME280;14831;50.474;7.616;2023-02-18T06:20:35;98590;;;8.7;91.5
27358;BME280;14831;50.474;7.616;2023-02-18T06:25:35;98580;;;8.7;91.8
27358;BME280;14831;50.474;7.616;2023-02-18T06:30:35;98570;;;8.7;91.6
27358;BME280;14831;50.474;7.616;2023-02-18T06:35:35;98560;;;8.6;91.6
27358;BME280;14831;50.474;7.616;2023-02-18T06:40:35;98560;;;8.6;91.2
27358;BME280;14831;50.474;7.616;2023-02-18T06:45:35;98560;;;8.5;91.3
27358;BME280;14831;50.474;7.616;2023-02-18T06:50:35;98570;;;8.5;91.1
27358;BME280;14831;50.474;7.616;2023-02-18T06:55:35;98550;;;8.5;91.1
27358;BME280;14831;50.474;7.616;2023-02-18T07:00:35;98560;;;8.5;91.0
27358;BME280;14831;50.474;7.616;2023-02-18T07:05:35;98560;;;8.6;90.7
27358;BME280;14831;50.474;7.616;2023-02-18T07:10:35;98550;;;8.6;90.1
27358;BME280;14831;50.474;7.616;2023-02-18T07:15:35;98550;;;8.6;89.0
27358;BME280;14831;50.474;7.616;2023-02-18T07:20:35;98550;;;8.7;88.5
27358;BME280;14831;50.474;7.616;2023-02-18T07:25:35;98560;;;8.8;86.6
27358;BME280;14831;50.474;7.616;2023-02-18T07:30:35;98550;;;8.8;85.7
27358;BME280;14831;50.474;7.616;2023-02-18T07:35:35;98550;;;8.9;84.0
27358;BME280;14831;50.474;7.616;2023-02-18T07:40:35;98530;;;8.9;83.4
27358;BME280;14831;50.474;7.616;2023-02-18T07:45:36;98550;;;9.0;82.0
27358;BME280;14831;50.474;7.616;2023-02-18T07:50:37;98570;;;9.0;82.3
27358;BME280;14831;50.474;7.616;2023-02-18T07:55:35;98560;;;9.0;83.1
27358;BME280;14831;50.474;7.616;2023-02-18T08:00:35;98560;;;9.0;83.4
27358;BME280;14831;50.474;7.616;2023-02-18T08:05:35;98580;;;9.0;83.1
27358;BME280;14831;50.474;7.616;2023-02-18T08:10:35;98580;;;9.0;83.5
27358;BME280;14831;50.474;7.616;2023-02-18T08:15:35;98570;;;9.0;83.1
27358;BME280;14831;50.474;7.616;2023-02-18T08:20:35;98590;;;9.1;82.3
27358;BME280;14831;50.474;7.616;2023-02-18T08:25:35;98570;;;9.2;81.3
27358;BME280;14831;50.474;7.616;2023-02-18T08:30:35;98570;;;9.3;79.9
27358;BME280;14831;50.474;7.616;2023-02-18T08:35:35;98570;;;9.3;80.6
27358;BME280;14831;50.474;7.616;2023-02-18T08:40:35;98580;;;9.2;80.5
27358;BME280;14831;50.474;7.616;2023-02-18T08:45:35;98570;;;9.2;80.0
27358;BME280;14831;50.474;7.616;2023-02-18T08:50:35;98580;;;9.4;78.4
27358;BME280;14831;50.474;7.616;2023-02-18T08:55:35;98580;;;9.4;76.9
27358;BME280;14831;50.474;7.616;2023-02-18T09:00:35;98580;;;9.5;78.7
27358;BME280;14831;50.474;7.616;2023-02-18T09:05:35;98590;;;9.5;76.0
27358;BME280;14831;50.474;7.616;2023-02-18T09:10:35;98600;;;9.6;76.0
27358;BME280;14831;50.474;7.616;2023-02-18T09:15:35;98590;;;9.5;77.0
27358;BME280;14831;50.474;7.616;2023-02-18T09:20:35;98590;;;9.6;76.6
27358;BME280;14831;50.474;7.616;2023-02-18T09:25:38;98600;;;9.5;76.4
27358;BME280;14831;50.474;7.616;2023-02-18T09:30:35;98620;;;9.5;77.5
27358;BME280;14831;50.474;7.616;2023-02-18T09:35:37;98620;;;9.4;77.7
27358;BME280;14831;50.474;7.616;2023-02-18T09:40:36;98610;;;9.4;76.9
27358;BME280;14831;50.474;7.616;2023-02-18T09:45:35;98620;;;9.8;73.8
27358;BME280;14831;50.474;7.616;2023-02-18T09:50:35;98580;;;9.9;72.4
27358;BME280;14831;50.474;7.616;2023-02-18T09:55:36;98620;;;9.6;72.5
27358;BME280;14831;50.474;7.616;2023-02-18T10:00:36;98630;;;9.5;74.7
27358;BME280;14831;50.474;7.616;2023-02-18T10:05:35;98610;;;9.4;76.2
27358;BME280;14831;50.474;7.616;2023-02-18T10:10:36;98600;;;9.4;76.1
27358;BME280;14831;50.474;7.616;2023-02-18T10:15:35;98600;;;9.4;75.9
27358;BME280;14831;50.474;7.616;2023-02-18T10:20:35;98590;;;9.4;74.7
27358;BME280;14831;50.474;7.616;2023-02-18T10:25:35;98600;;;9.4;74.3
27358;BME280;14831;50.474;7.616;2023-02-18T10:30:36;98590;;;9.4;74.3
27358;BME280;14831;50.474;7.616;2023-02-18T10:35:36;98580;;;9.5;73.5
27358;BME280;14831;50.474;7.616;2023-02-18T10:40:38;98580;;;9.5;73.7
27358;BME280;14831;50.474;7.616;2023-02-18T10:45:37;98590;;;9.5;74.1
27358;BME280;14831;50.474;7.616;2023-02-18T10:50:36;98600;;;9.5;74.4
27358;BME280;14831;50.474;7.616;2023-02-18T10:55:36;98600;;;9.3;75.1
27358;BME280;14831;50.474;7.616;2023-02-18T11:00:35;98600;;;9.2;75.1
27358;BME280;14831;50.474;7.616;2023-02-18T11:05:35;98580;;;9.2;75.9
27358;BME280;14831;50.474;7.616;2023-02-18T11:10:37;98590;;;9.2;76.3
27358;BME280;14831;50.474;7.616;2023-02-18T11:15:35;98580;;;9.1;78.8
27358;BME280;14831;50.474;7.616;2023-02-18T11:20:35;98580;;;9.1;79.3
27358;BME280;14831;50.474;7.616;2023-02-18T11:25:36;98570;;;9.0;78.9
27358;BME280;14831;50.474;7.616;2023-02-18T11:30:35;98550;;;9.1;78.6
27358;BME280;14831;50.474;7.616;2023-02-18T11:35:35;98530;;;9.1;78.7
27358;BME280;14831;50.474;7.616;2023-02-18T11:40:35;98540;;;9.2;78.6
27358;BME280;14831;50.474;7.616;2023-02-18T11:45:35;98550;;;9.2;78.7
27358;BME280;14831;50.474;7.616;2023-02-18T11:50:35;98540;;;9.2;78.7
27358;BME280;14831;50.474;7.616;2023-02-18T11:55:35;98560;;;9.2;79.0
27358;BME280;14831;50.474;7.616;2023-02-18T12:00:36;98550;;;9.2;79.0
27358;BME280;14831;50.474;7.616;2023-02-18T12:05:35;98560;;;9.0;84.2
27358;BME280;14831;50.474;7.616;2023-02-18T12:10:35;98550;;;8.6;87.5
27358;BME280;14831;50.474;7.616;2023-02-18T12:15:39;98570;;;8.5;89.7
27358;BME280;14831;50.474;7.616;2023-02-18T12:20:41;98560;;;8.4;91.7
27358;BME280;14831;50.474;7.616;2023-02-18T12:25:37;98560;;;8.3;93.1
27358;BME280;14831;50.474;7.616;2023-02-18T12:30:39;98550;;;8.3;93.7
27358;BME280;14831;50.474;7.616;2023-02-18T12:35:38;98550;;;8.3;94.4
27358;BME280;14831;50.474;7.616;2023-02-18T12:40:38;98560;;;8.3;94.7
27358;BME280;14831;50.474;7.616;2023-02-18T12:45:40;98560;;;8.3;95.0
27358;BME280;14831;50.474;7.616;2023-02-18T12:50:39;98560;;;8.3;95.1
27358;BME280;14831;50.474;7.616;2023-02-18T12:55:38;98550;;;8.4;95.8
27358;BME280;14831;50.474;7.616;2023-02-18T13:00:45;98570;;;8.4;95.3
27358;BME280;14831;50.474;7.616;2023-02-18T13:05:37;98560;;;8.4;95.9
27358;BME280;14831;50.474;7.616;2023-02-18T13:10:41;98560;;;8.4;96.2
27358;BME280;14831;50.474;7.616;2023-02-18T13:15:36;98570;;;8.4;96.3
27358;BME280;14831;50.474;7.616;2023-02-18T13:20:35;98570;;;8.4;96.1
27358;BME280;14831;50.474;7.616;2023-02-18T13:25:36;98570;;;8.4;96.2
27358;BME280;14831;50.474;7.616;2023-02-18T13:30:37;98580;;;8.4;96.4
27358;BME280;14831;50.474;7.616;2023-02-18T13:35:36;98570;;;8.4;96.6
27358;BME280;14831;50.474;7.616;2023-02-18T13:40:35;98550;;;8.3;96.1
27358;BME280;14831;50.474;7.616;2023-02-18T13:45:35;98570;;;8.3;96.5
27358;BME280;14831;50.474;7.616;2023-02-18T13:50:39;98560;;;8.4;96.5
27358;BME280;14831;50.474;7.616;2023-02-18T13:55:37;98560;;;8.4;96.5
27358;BME280;14831;50.474;7.616;2023-02-18T14:00:35;98560;;;8.3;96.7
27358;BME280;14831;50.474;7.616;2023-02-18T14:05:37;98570;;;8.3;97.0
27358;BME280;14831;50.474;7.616;2023-02-18T14:10:35;98560;;;8.2;97.1
27358;BME280;14831;50.474;7.616;2023-02-18T14:15:45;98560;;;8.2;97.4
27358;BME280;14831;50.474;7.616;2023-02-18T14:20:43;98560;;;8.2;97.5
27358;BME280;14831;50.474;7.616;2023-02-18T14:25:36;98560;;;8.2;97.5
27358;BME280;14831;50.474;7.616;2023-02-18T14:30:37;98560;;;8.2;97.4
27358;BME280;14831;50.474;7.616;2023-02-18T14:35:36;98560;;;8.3;97.4
27358;BME280;14831;50.474;7.616;2023-02-18T14:40:41;98560;;;8.3;97.4
27358;BME280;14831;50.474;7.616;2023-02-18T14:45:40;98540;;;8.3;97.2
27358;BME280;14831;50.474;7.616;2023-02-18T14:50:36;98550;;;8.3;97.3
27358;BME280;14831;50.474;7.616;2023-02-18T14:55:36;98550;;;8.3;96.9
27358;BME280;14831;50.474;7.616;2023-02-18T15:00:38;98550;;;8.3;96.9
27358;BME280;14831;50.474;7.616;2023-02-18T15:05:36;98540;;;8.4;97.1
27358;BME280;14831;50.474;7.616;2023-02-18T15:10:36;98550;;;8.3;97.0
27358;BME280;14831;50.474;7.616;2023-02-18T15:15:35;98540;;;8.4;97.0
27358;BME280;14831;50.474;7.616;2023-02-18T15:20:35;98540;;;8.4;96.9
27358;BME280;14831;50.474;7.616;2023-02-18T15:25:35;98530;;;8.4;96.8
27358;BME280;14831;50.474;7.616;2023-02-18T15:30:35;98540;;;8.3;96.8
27358;BME280;14831;50.474;7.616;2023-02-18T15:35:35;98550;;;8.4;96.4
27358;BME280;14831;50.474;7.616;2023-02-18T15:40:35;98520;;;8.4;96.2
27358;BME280;14831;50.474;7.616;2023-02-18T15:45:35;98540;;;8.4;96.0
27358;BME280;14831;50.474;7.616;2023-02-18T15:50:36;98540;;;8.4;95.9
27358;BME280;14831;50.474;7.616;2023-02-18T15:55:35;98530;;;8.4;95.8
27358;BME280;14831;50.474;7.616;2023-02-18T16:00:36;98530;;;8.4;95.6
27358;BME280;14831;50.474;7.616;2023-02-18T16:05:35;98540;;;8.4;95.6
27358;BME280;14831;50.474;7.616;2023-02-18T16:10:41;98530;;;8.4;95.3
27358;BME280;14831;50.474;7.616;2023-02-18T16:15:36;98530;;;8.4;95.5
27358;BME280;14831;50.474;7.616;2023-02-18T16:20:35;98530;;;8.4;95.3
27358;BME280;14831;50.474;7.616;2023-02-18T16:25:39;98540;;;8.5;94.8
27358;BME280;14831;50.474;7.616;2023-02-18T16:30:35;98530;;;8.5;94.4
27358;BME280;14831;50.474;7.616;2023-02-18T16:35:35;98530;;;8.5;94.3
27358;BME280;14831;50.474;7.616;2023-02-18T16:40:35;98530;;;8.5;94.3
27358;BME280;14831;50.474;7.616;2023-02-18T16:45:35;98530;;;8.5;94.7
27358;BME280;14831;50.474;7.616;2023-02-18T16:50:35;98530;;;8.4;94.6
27358;BME280;14831;50.474;7.616;2023-02-18T16:55:35;98530;;;8.4;94.5
27358;BME280;14831;50.474;7.616;2023-02-18T17:00:35;98520;;;8.4;94.6
27358;BME280;14831;50.474;7.616;2023-02-18T17:05:35;98530;;;8.4;94.4
27358;BME280;14831;50.474;7.616;2023-02-18T17:10:35;98540;;;8.4;94.3
27358;BME280;14831;50.474;7.616;2023-02-18T17:15:35;98540;;;8.3;95.0
27358;BME280;14831;50.474;7.616;2023-02-18T17:20:35;98550;;;8.3;94.8
27358;BME280;14831;50.474;7.616;2023-02-18T17:25:35;98550;;;8.3;94.9
27358;BME280;14831;50.474;7.616;2023-02-18T17:30:35;98560;;;8.2;95.4
27358;BME280;14831;50.474;7.616;2023-02-18T17:35:35;98570;;;8.2;95.9
27358;BME280;14831;50.474;7.616;2023-02-18T17:40:35;98570;;;8.2;96.5
27358;BME280;14831;50.474;7.616;2023-02-18T17:45:36;98580;;;8.1;96.7
27358;BME280;14831;50.474;7.616;2023-02-18T17:50:35;98580;;;8.1;96.8
27358;BME280;14831;50.474;7.616;2023-02-18T17:55:35;98580;;;8.1;96.7
27358;BME280;14831;50.474;7.616;2023-02-18T18:00:36;98580;;;8.1;97.0
27358;BME280;14831;50.474;7.616;2023-02-18T18:05:36;98580;;;8.0;97.1
27358;BME280;14831;50.474;7.616;2023-02-18T18:10:36;98590;;;8.0;97.1
27358;BME280;14831;50.474;7.616;2023-02-18T18:15:36;98570;;;8.0;97.2
27358;BME280;14831;50.474;7.616;2023-02-18T18:20:35;98580;;;8.0;97.4
27358;BME280;14831;50.474;7.616;2023-02-18T18:25:36;98570;;;8.0;97.4
27358;BME280;14831;50.474;7.616;2023-02-18T18:30:35;98580;;;8.0;97.4
27358;BME280;14831;50.474;7.616;2023-02-18T18:35:35;98580;;;7.9;97.2
27358;BME280;14831;50.474;7.616;2023-02-18T18:40:35;98580;;;8.0;97.1
27358;BME280;14831;50.474;7.616;2023-02-18T18:45:35;98570;;;7.9;96.8
27358;BME280;14831;50.474;7.616;2023-02-18T18:50:35;98570;;;7.9;96.9
27358;BME280;14831;50.474;7.616;2023-02-18T18:55:36;98570;;;7.9;96.5
27358;BME280;14831;50.474;7.616;2023-02-18T19:00:36;98570;;;8.0;96.4
27358;BME280;14831;50.474;7.616;2023-02-18T19:05:36;98570;;;7.9;96.3
27358;BME280;14831;50.474;7.616;2023-02-18T19:10:36;98580;;;7.9;96.5
27358;BME280;14831;50.474;7.616;2023-02-18T19:15:35;98580;;;7.9;96.5
27358;BME280;14831;50.474;7.616;2023-02-18T19:20:35;98590;;;7.9;96.4
27358;BME280;14831;50.474;7.616;2023-02-18T19:25:35;98570;;;7.9;96.7
27358;BME280;14831;50.474;7.616;2023-02-18T19:30:35;98580;;;7.8;96.9
27358;BME280;14831;50.474;7.616;2023-02-18T19:35:37;98580;;;7.8;97.0
27358;BME280;14831;50.474;7.616;2023-02-18T19:40:35;98560;;;7.8;97.1
27358;BME280;14831;50.474;7.616;2023-02-18T19:45:38;98570;;;7.7;97.4
27358;BME280;14831;50.474;7.616;2023-02-18T19:50:35;98560;;;7.7;97.4
27358;BME280;14831;50.474;7.616;2023-02-18T19:55:35;98550;;;7.7;97.4
27358;BME280;14831;50.474;7.616;2023-02-18T20:00:35;98550;;;7.6;97.4
27358;BME280;14831;50.474;7.616;2023-02-18T20:05:35;98550;;;7.6;97.4
27358;BME280;14831;50.474;7.616;2023-02-18T20:10:35;98550;;;7.6;97.4
27358;BME280;14831;50.474;7.616;2023-02-18T20:15:35;98540;;;7.7;97.3
27358;BME280;14831;50.474;7.616;2023-02-18T20:20:35;98540;;;7.7;97.1
27358;BME280;14831;50.474;7.616;2023-02-18T20:25:37;98540;;;7.7;96.9
27358;BME280;14831;50.474;7.616;2023-02-18T20:30:36;98530;;;7.7;96.8
27358;BME280;14831;50.474;7.616;2023-02-18T20:35:35;98530;;;7.7;97.1
27358;BME280;14831;50.474;7.616;2023-02-18T20:40:35;98530;;;7.7;97.0
27358;BME280;14831;50.474;7.616;2023-02-18T20:45:35;98520;;;7.6;96.7
27358;BME280;14831;50.474;7.616;2023-02-18T20:50:35;98520;;;7.7;96.7
27358;BME280;14831;50.474;7.616;2023-02-18T20:55:35;98510;;;7.7;96.8
27358;BME280;14831;50.474;7.616;2023-02-18T21:00:35;98520;;;7.7;96.8
27358;BME280;14831;50.474;7.616;2023-02-18T21:05:35;98510;;;7.7;96.8
27358;BME280;14831;50.474;7.616;2023-02-18T21:10:37;98510;;;7.7;96.7
27358;BME280;14831;50.474;7.616;2023-02-18T21:15:35;98510;;;7.7;96.4
27358;BME280;14831;50.474;7.616;2023-02-18T21:20:35;98500;;;7.7;96.3
27358;BME280;14831;50.474;7.616;2023-02-18T21:25:35;98510;;;7.7;96.4
27358;BME280;14831;50.474;7.616;2023-02-18T21:30:35;98490;;;7.7;96.3
27358;BME280;14831;50.474;7.616;2023-02-18T21:35:35;98490;;;7.7;96.2
27358;BME280;14831;50.474;7.616;2023-02-18T21:40:35;98470;;;7.7;96.1
27358;BME280;14831;50.474;7.616;2023-02-18T21:45:35;98480;;;7.7;96.2
27358;BME280;14831;50.474;7.616;2023-02-18T21:50:35;98480;;;7.7;96.3
27358;BME280;14831;50.474;7.616;2023-02-18T21:55:35;98470;;;7.7;96.3
27358;BME280;14831;50.474;7.616;2023-02-18T22:00:35;98470;;;7.7;96.3
27358;BME280;14831;50.474;7.616;2023-02-18T22:05:37;98460;;;7.7;96.2
27358;BME280;14831;50.474;7.616;2023-02-18T22:10:37;98470;;;7.7;96.3
27358;BME280;14831;50.474;7.616;2023-02-18T22:15:35;98460;;;7.7;96.6
27358;BME280;14831;50.474;7.616;2023-02-18T22:20:36;98470;;;7.7;96.6
27358;BME280;14831;50.474;7.616;2023-02-18T22:25:35;98460;;;7.7;96.2
27358;BME280;14831;50.474;7.616;2023-02-18T22:30:37;98460;;;7.7;96.3
27358;BME280;14831;50.474;7.616;2023-02-18T22:35:35;98460;;;7.7;96.6
27358;BME280;14831;50.474;7.616;2023-02-18T22:40:35;98460;;;7.7;96.7
27358;BME280;14831;50.474;7.616;2023-02-18T22:45:35;98450;;;7.7;96.5
27358;BME280;14831;50.474;7.616;2023-02-18T22:50:35;98460;;;7.7;96.4
27358;BME280;14831;50.474;7.616;2023-02-18T22:55:35;98450;;;7.7;96.4
27358;BME280;14831;50.474;7.616;2023-02-18T23:00:35;98440;;;7.8;96.5
27358;BME280;14831;50.474;7.616;2023-02-18T23:05:35;98440;;;7.7;96.7
27358;BME280;14831;50.474;7.616;2023-02-18T23:10:35;98440;;;7.8;96.5
27358;BME280;14831;50.474;7.616;2023-02-18T23:15:35;98440;;;7.8;96.5
27358;BME280;14831;50.474;7.616;2023-02-18T23:20:35;98440;;;7.7;96.5
27358;BME280;14831;50.474;7.616;2023-02-18T23:25:35;98440;;;7.7;96.6
27358;BME280;14831;50.474;7.616;2023-02-18T23:30:35;98420;;;7.7;96.5
27358;BME280;14831;50.474;7.616;2023-02-18T23:35:35;98410;;;7.8;96.5
27358;BME280;14831;50.474;7.616;2023-02-18T23:40:35;98400;;;7.8;96.5
27358;BME280;14831;50.474;7.616;2023-02-18T23:45:35;98400;;;7.8;96.5
27358;BME280;14831;50.474;7.616;2023-02-18T23:50:35;98400;;;7.8;96.7
27358;BME280;14831;50.474;7.616;2023-02-18T23:55:35;98420;;;7.8;96.6
